< < Back
Terminal Aerodrome Forecast


Current Version              Previous Versions:   1  2  3  4  5  6  7  8  9  

Terminal Aerodrome Forecast

536
FTUS42 KTAE 252300
TAFVLD
TAF
KVLD 252320Z 2600/2624 34004KT P6SM SKC=



Latest METAR

391
SAUS70 KWBC 260000 RRI
MTRVLD
METAR KVLD 252353Z AUTO 00000KT 10SM CLR 15/08 A3000 RMK AO2 SLP165
T01500078 10267 20150 53009 TSNO


USA.gov is the U.S. government's official web portal to all federal, state and local government web resources and services.